createdAt,value
2023-01-17T00:00:06.033Z,94601.78
2023-01-17T00:02:37.912Z,94599.22
2023-01-17T00:05:09.795Z,94590.19
2023-01-17T00:07:41.435Z,94593.44
2023-01-17T00:10:19.510Z,94584.56
2023-01-17T00:13:02.934Z,94585.75
2023-01-17T00:15:34.668Z,94590.72
2023-01-17T00:18:06.288Z,94581.84
2023-01-17T00:20:37.872Z,94572.22
2023-01-17T00:23:15.658Z,94562.97
2023-01-17T00:25:47.457Z,94563.31
2023-01-17T00:28:19.363Z,94564.13
2023-01-17T00:30:50.885Z,94568.25
2023-01-17T00:33:23.871Z,94547.88
2023-01-17T00:35:57.851Z,94550.03
2023-01-17T00:38:32.093Z,94554.19
2023-01-17T00:41:06.870Z,94545.41
2023-01-17T00:43:38.439Z,94540.81
2023-01-17T00:46:09.936Z,94539.63
2023-01-17T00:48:42.510Z,94532.81
2023-01-17T00:51:14.159Z,94526.72
2023-01-17T00:53:45.684Z,94519.44
2023-01-17T00:56:17.243Z,94506.66
2023-01-17T00:58:49.477Z,94498.41
2023-01-17T01:01:21.122Z,94501.97
2023-01-17T01:03:52.769Z,94502.31
2023-01-17T01:06:24.380Z,94495.47
2023-01-17T01:08:55.929Z,94492.34
2023-01-17T01:11:27.597Z,94489.72
2023-01-17T01:14:00.221Z,94479.78
2023-01-17T01:16:31.797Z,94477.91
2023-01-17T01:19:04.968Z,94479.31
2023-01-17T01:21:36.587Z,94471.50
2023-01-17T01:24:08.283Z,94466.84
2023-01-17T01:26:39.811Z,94458.44
2023-01-17T01:29:11.393Z,94462.19
2023-01-17T01:31:42.969Z,94461.72
2023-01-17T01:34:14.530Z,94446.19
2023-01-17T01:36:46.087Z,94452.50
2023-01-17T01:39:17.703Z,94447.97
2023-01-17T01:41:49.274Z,94447.09
2023-01-17T01:44:44.158Z,94441.97
2023-01-17T01:47:30.831Z,94445.28
2023-01-17T01:50:08.581Z,94448.38
2023-01-17T01:52:44.587Z,94440.44
2023-01-17T01:55:23.673Z,94450.38
2023-01-17T01:58:06.520Z,94453.50
2023-01-17T02:00:40.524Z,94447.13
2023-01-17T02:03:19.628Z,94449.63
2023-01-17T02:05:52.224Z,94453.50
2023-01-17T02:08:24.463Z,94447.47
2023-01-17T02:10:56.566Z,94432.22
2023-01-17T02:13:28.656Z,94430.84
2023-01-17T02:16:15.936Z,94425.19
2023-01-17T02:19:33.687Z,94406.72
2023-01-17T02:22:24.090Z,94401.66
2023-01-17T02:25:22.622Z,94407.38
2023-01-17T02:28:23.336Z,94397.16
2023-01-17T02:31:04.647Z,94396.16
2023-01-17T02:34:06.973Z,94377.38
2023-01-17T02:37:14.853Z,94384.97
2023-01-17T02:39:54.706Z,94377.38
2023-01-17T02:42:36.105Z,94367.50
2023-01-17T02:45:08.170Z,94366.88
2023-01-17T02:47:39.723Z,94357.34
2023-01-17T02:50:25.468Z,94359.47
2023-01-17T02:53:21.020Z,94346.28
2023-01-17T02:56:14.575Z,94332.63
2023-01-17T02:58:51.832Z,94331.88
2023-01-17T03:02:04.261Z,94330.09
2023-01-17T03:04:44.710Z,94314.75
2023-01-17T03:07:23.531Z,94313.31
2023-01-17T03:10:00.742Z,94309.75
2023-01-17T03:12:37.885Z,94308.41
2023-01-17T03:15:15.166Z,94299.19
2023-01-17T03:17:52.536Z,94300.72
2023-01-17T03:20:24.290Z,94291.69
2023-01-17T03:22:56.191Z,94287.22
2023-01-17T03:25:27.960Z,94279.28
2023-01-17T03:27:59.761Z,94272.28
2023-01-17T03:30:31.452Z,94267.38
2023-01-17T03:33:03.134Z,94258.97
2023-01-17T03:35:34.955Z,94249.34
2023-01-17T03:38:07.092Z,94252.44
2023-01-17T03:40:38.680Z,94245.41
2023-01-17T03:43:10.404Z,94242.78
2023-01-17T03:45:42.067Z,94241.53
2023-01-17T03:48:13.776Z,94233.34
2023-01-17T03:50:45.589Z,94230.38
2023-01-17T03:53:17.237Z,94215.78
2023-01-17T03:55:48.856Z,94217.72
2023-01-17T03:58:20.677Z,94218.69
2023-01-17T04:00:52.465Z,94213.59
2023-01-17T04:03:24.379Z,94217.28
2023-01-17T04:05:56.060Z,94223.34
2023-01-17T04:08:27.857Z,94204.69
2023-01-17T04:10:59.503Z,94208.69
2023-01-17T04:13:41.276Z,94204.50
2023-01-17T04:16:17.128Z,94201.13
2023-01-17T04:18:49.013Z,94195.66
2023-01-17T04:21:20.615Z,94188.59
2023-01-17T04:23:52.347Z,94193.53
2023-01-17T04:26:24.028Z,94191.56
2023-01-17T04:28:55.650Z,94191.00
2023-01-17T04:31:27.821Z,94195.06
2023-01-17T04:33:59.593Z,94187.59
2023-01-17T04:36:31.182Z,94183.13
2023-01-17T04:39:02.960Z,94174.06
2023-01-17T04:41:34.736Z,94175.13
2023-01-17T04:44:06.782Z,94166.00
2023-01-17T04:46:38.834Z,94160.50
2023-01-17T04:49:10.548Z,94147.38
2023-01-17T04:51:42.225Z,94134.03
2023-01-17T04:54:13.862Z,94135.91
2023-01-17T04:56:45.372Z,94130.28
2023-01-17T04:59:16.924Z,94141.09
2023-01-17T05:01:48.821Z,94139.25
2023-01-17T05:04:20.429Z,94140.19
2023-01-17T05:06:51.971Z,94132.31
2023-01-17T05:09:23.579Z,94132.31
2023-01-17T05:11:55.182Z,94133.47
2023-01-17T05:14:26.744Z,94134.66
2023-01-17T05:16:58.489Z,94126.34
2023-01-17T05:19:30.087Z,94118.50
2023-01-17T05:22:01.695Z,94116.19
2023-01-17T05:24:33.222Z,94113.44
2023-01-17T05:27:04.804Z,94102.56
2023-01-17T05:29:36.952Z,94097.22
2023-01-17T05:32:08.688Z,94093.34
2023-01-17T05:34:40.259Z,94084.56
2023-01-17T05:37:11.846Z,94081.59
2023-01-17T05:39:43.403Z,94085.00
2023-01-17T05:42:14.970Z,94069.44
2023-01-17T05:44:46.532Z,94067.75
2023-01-17T05:47:18.043Z,94070.31
2023-01-17T05:49:49.667Z,94067.47
2023-01-17T05:52:21.222Z,94062.72
2023-01-17T05:54:52.800Z,94070.38
2023-01-17T05:57:24.402Z,94067.47
2023-01-17T05:59:55.997Z,94068.72
2023-01-17T06:02:27.614Z,94067.66
2023-01-17T06:04:59.793Z,94062.81
2023-01-17T06:07:33.211Z,94061.28
2023-01-17T06:10:05.763Z,94057.28
2023-01-17T06:12:37.693Z,94050.56
2023-01-17T06:15:10.772Z,94056.56
2023-01-17T06:17:43.666Z,94057.84
2023-01-17T06:20:15.221Z,94058.22
2023-01-17T06:22:46.924Z,94049.47
2023-01-17T06:25:18.486Z,94046.56
2023-01-17T06:27:50.034Z,94044.03
2023-01-17T06:30:21.765Z,94055.09
2023-01-17T06:32:54.788Z,94053.25
2023-01-17T06:35:26.342Z,94054.91
2023-01-17T06:37:58.631Z,94049.84
2023-01-17T06:40:30.698Z,94047.34
2023-01-17T06:43:04.252Z,94036.19
2023-01-17T06:45:36.479Z,94033.41
2023-01-17T06:48:08.057Z,94028.22
2023-01-17T06:50:39.647Z,94033.38
2023-01-17T06:53:11.185Z,94028.06
2023-01-17T06:55:42.838Z,94024.13
2023-01-17T06:58:14.423Z,94029.06
2023-01-17T07:00:46.117Z,94019.13
2023-01-17T07:03:26.825Z,94020.59
2023-01-17T07:06:01.797Z,94017.25
2023-01-17T07:08:33.450Z,94009.53
2023-01-17T07:11:07.407Z,94003.78
2023-01-17T07:13:40.043Z,94011.34
2023-01-17T07:16:11.686Z,93993.09
2023-01-17T07:18:43.291Z,93983.75
2023-01-17T07:21:15.649Z,93980.09
2023-01-17T07:23:47.186Z,93975.97
2023-01-17T07:26:18.739Z,93976.09
2023-01-17T07:28:50.271Z,93980.75
2023-01-17T07:31:21.943Z,93980.34
2023-01-17T07:33:53.650Z,93974.13
2023-01-17T07:36:25.319Z,93978.75
2023-01-17T07:38:57.025Z,93977.38
2023-01-17T07:41:31.905Z,93978.09
2023-01-17T07:44:12.136Z,93982.00
2023-01-17T07:46:43.767Z,93972.97
2023-01-17T07:49:15.326Z,93974.31
2023-01-17T07:51:47.539Z,93978.41
2023-01-17T07:54:19.119Z,93976.31
2023-01-17T07:56:50.706Z,93977.22
2023-01-17T07:59:22.425Z,93976.97
2023-01-17T08:01:54.398Z,93977.53
2023-01-17T08:04:26.717Z,93977.22
2023-01-17T08:06:58.254Z,93978.38
2023-01-17T08:09:29.794Z,93979.66
2023-01-17T08:12:01.614Z,93985.00
2023-01-17T08:14:33.364Z,93979.75
2023-01-17T08:17:12.222Z,93986.97
2023-01-17T08:19:44.428Z,93986.47
2023-01-17T08:22:16.207Z,93986.16
2023-01-17T08:24:47.746Z,93978.34
2023-01-17T08:27:19.318Z,93975.06
2023-01-17T08:29:51.052Z,93971.25
2023-01-17T08:32:22.831Z,93965.81
2023-01-17T08:34:55.319Z,93971.41
2023-01-17T08:37:27.500Z,93957.31
2023-01-17T08:39:59.441Z,93955.50
2023-01-17T08:42:31.424Z,93964.44
2023-01-17T08:45:08.604Z,93971.63
2023-01-17T08:47:40.349Z,93964.56
2023-01-17T08:50:12.251Z,93967.00
2023-01-17T08:52:43.800Z,93962.25
2023-01-17T08:55:16.248Z,93958.53
2023-01-17T08:57:47.959Z,93960.19
2023-01-17T09:00:20.411Z,93951.75
2023-01-17T09:02:52.258Z,93944.88
2023-01-17T09:05:23.990Z,93944.81
2023-01-17T09:07:55.677Z,93937.13
2023-01-17T09:10:27.540Z,93926.56
2023-01-17T09:12:59.210Z,93918.94
2023-01-17T09:15:31.241Z,93913.78
2023-01-17T09:18:02.896Z,93913.78
2023-01-17T09:20:34.730Z,93905.81
2023-01-17T09:23:06.381Z,93910.09
2023-01-17T09:25:38.413Z,93917.44
2023-01-17T09:28:10.447Z,93916.34
2023-01-17T09:30:42.366Z,93919.06
2023-01-17T09:33:15.006Z,93912.47
2023-01-17T09:35:47.304Z,93926.19
2023-01-17T09:38:18.858Z,93922.09
2023-01-17T09:40:50.514Z,93922.78
2023-01-17T09:43:37.012Z,93917.53
2023-01-17T09:46:19.545Z,93914.50
2023-01-17T09:49:00.055Z,93902.94
2023-01-17T09:51:32.118Z,93896.28
2023-01-17T09:54:04.640Z,93886.75
2023-01-17T09:56:46.111Z,93892.56
2023-01-17T09:59:35.847Z,93897.34
2023-01-17T10:02:23.783Z,93887.78
2023-01-17T10:05:26.952Z,93886.28
2023-01-17T10:08:20.050Z,93882.91
2023-01-17T10:10:54.322Z,93880.22
2023-01-17T10:14:01.468Z,93871.81
2023-01-17T10:16:43.825Z,93874.63
2023-01-17T10:19:40.408Z,93859.66
2023-01-17T10:22:38.307Z,93855.91
2023-01-17T10:25:28.691Z,93848.28
2023-01-17T10:28:13.094Z,93855.72
2023-01-17T10:30:49.536Z,93857.94
2023-01-17T10:33:31.411Z,93849.88
2023-01-17T10:36:14.543Z,93842.44
2023-01-17T10:38:53.716Z,93843.50
2023-01-17T10:41:36.165Z,93834.22
2023-01-17T10:44:23.264Z,93831.84
2023-01-17T10:46:57.151Z,93829.81
2023-01-17T10:49:29.068Z,93836.78
2023-01-17T10:52:22.807Z,93828.72
2023-01-17T10:55:07.493Z,93828.56
2023-01-17T10:57:45.259Z,93823.41
2023-01-17T11:00:28.627Z,93824.63
2023-01-17T11:03:01.647Z,93822.09
2023-01-17T11:05:34.421Z,93813.16
2023-01-17T11:08:11.781Z,93814.84
2023-01-17T11:10:52.698Z,93812.75
2023-01-17T11:13:38.278Z,93814.13
2023-01-17T11:16:18.253Z,93808.72
2023-01-17T11:19:05.760Z,93810.69
2023-01-17T11:21:40.184Z,93814.91
2023-01-17T11:24:24.322Z,93808.50
2023-01-17T11:26:58.230Z,93810.53
2023-01-17T11:29:38.503Z,93807.09
2023-01-17T11:32:22.175Z,93803.16
2023-01-17T11:35:21.681Z,93805.81
2023-01-17T11:38:02.512Z,93807.56
2023-01-17T11:40:43.821Z,93797.53
2023-01-17T11:43:27.527Z,93800.44
2023-01-17T11:46:15.607Z,93803.66
2023-01-17T11:48:56.429Z,93798.25
2023-01-17T11:51:41.399Z,93804.41
2023-01-17T11:54:24.993Z,93802.22
2023-01-17T11:56:59.076Z,93803.72
2023-01-17T11:59:35.757Z,93804.00
2023-01-17T12:02:28.964Z,93806.72
2023-01-17T12:05:12.705Z,93813.78
2023-01-17T12:08:07.334Z,93816.88
2023-01-17T12:11:11.287Z,93820.44
2023-01-17T12:14:04.212Z,93821.72
2023-01-17T12:17:07.181Z,93814.59
2023-01-17T12:19:59.986Z,93817.44
2023-01-17T12:22:58.240Z,93819.13
2023-01-17T12:25:42.077Z,93816.34
2023-01-17T12:28:16.365Z,93811.63
2023-01-17T12:31:06.654Z,93803.81
2023-01-17T12:33:47.367Z,93801.47
2023-01-17T12:36:22.091Z,93801.91
2023-01-17T12:38:53.615Z,93809.59
2023-01-17T12:41:45.298Z,93808.69
2023-01-17T12:44:23.132Z,93792.88
2023-01-17T12:47:02.965Z,93791.91
2023-01-17T12:49:48.668Z,93794.69
2023-01-17T12:52:55.366Z,93800.94
2023-01-17T12:55:50.430Z,93790.41
2023-01-17T12:58:31.499Z,93796.59
2023-01-17T13:01:13.485Z,93800.44
2023-01-17T13:04:07.318Z,93807.25
2023-01-17T13:06:44.617Z,93815.47
2023-01-17T13:09:22.331Z,93817.50
2023-01-17T13:12:31.844Z,93812.53
2023-01-17T13:15:16.771Z,93803.28
2023-01-17T13:18:13.063Z,93798.75
2023-01-17T13:21:09.227Z,93799.59
2023-01-17T13:23:59.607Z,93797.41
2023-01-17T13:26:56.224Z,93808.03
2023-01-17T13:29:30.786Z,93814.47
2023-01-17T13:32:08.496Z,93821.72
2023-01-17T13:35:00.285Z,93834.16
2023-01-17T13:37:47.865Z,93833.41
2023-01-17T13:40:40.816Z,93838.31
2023-01-17T13:43:25.824Z,93837.97
2023-01-17T13:46:00.927Z,93840.19
2023-01-17T13:48:36.470Z,93848.97
2023-01-17T13:51:12.353Z,93851.94
2023-01-17T13:53:44.000Z,93849.94
2023-01-17T13:56:18.540Z,93852.78
2023-01-17T13:58:50.417Z,93854.31
2023-01-17T14:01:22.324Z,93848.41
2023-01-17T14:03:54.166Z,93830.06
2023-01-17T14:06:36.080Z,93837.22
2023-01-17T14:09:07.869Z,93843.78
2023-01-17T14:12:05.935Z,93825.03
2023-01-17T14:14:40.421Z,93835.31
2023-01-17T14:17:18.158Z,93846.47
2023-01-17T14:19:52.993Z,93843.00
2023-01-17T14:22:29.761Z,93825.09
2023-01-17T14:25:04.387Z,93816.88
2023-01-17T14:27:47.537Z,93829.91
2023-01-17T14:30:26.582Z,93821.75
2023-01-17T14:33:01.289Z,93824.19
2023-01-17T14:35:39.985Z,93830.53
2023-01-17T14:38:29.315Z,93831.50
2023-01-17T14:41:04.417Z,93822.88
2023-01-17T14:43:44.119Z,93825.22
2023-01-17T14:46:31.247Z,93823.34
2023-01-17T14:49:23.531Z,93818.94
2023-01-17T14:52:03.457Z,93816.47
2023-01-17T14:54:35.020Z,93821.75
2023-01-17T14:57:20.870Z,93825.31
2023-01-17T15:00:19.332Z,93834.91
2023-01-17T15:02:53.636Z,93846.47
2023-01-17T15:05:28.816Z,93851.56
2023-01-17T15:08:01.380Z,93846.59
2023-01-17T15:10:34.446Z,93843.97
2023-01-17T15:13:10.488Z,93850.16
2023-01-17T15:15:42.154Z,93845.53
2023-01-17T15:18:13.654Z,93855.75
2023-01-17T15:20:52.274Z,93862.91
2023-01-17T15:23:32.463Z,93860.59
2023-01-17T15:26:08.176Z,93865.34
2023-01-17T15:28:40.938Z,93869.72
2023-01-17T15:31:36.935Z,93876.19
2023-01-17T15:34:36.185Z,93873.97
2023-01-17T15:37:24.219Z,93877.63
2023-01-17T15:40:14.784Z,93886.00
2023-01-17T15:42:54.426Z,93890.03
2023-01-17T15:45:29.883Z,93887.88
2023-01-17T15:48:40.246Z,93891.88
2023-01-17T15:51:12.777Z,93883.22
2023-01-17T15:53:44.471Z,93877.00
2023-01-17T15:56:32.331Z,93874.13
2023-01-17T15:59:23.140Z,93876.53
2023-01-17T16:01:59.586Z,93893.03
2023-01-17T16:04:36.161Z,93880.19
2023-01-17T16:07:19.451Z,93895.78
2023-01-17T16:09:51.027Z,93890.09
2023-01-17T16:12:22.614Z,93888.47
2023-01-17T16:15:11.197Z,93892.19
2023-01-17T16:17:50.840Z,93901.56
2023-01-17T16:20:28.997Z,93899.47
2023-01-17T16:23:00.702Z,93891.84
2023-01-17T16:25:32.544Z,93899.59
2023-01-17T16:28:05.515Z,93891.84
2023-01-17T16:30:38.124Z,93899.78
2023-01-17T16:33:12.078Z,93885.88
2023-01-17T16:35:43.642Z,93881.78
2023-01-17T16:38:15.384Z,93872.78
2023-01-17T16:40:48.229Z,93867.50
2023-01-17T16:43:20.066Z,93874.41
2023-01-17T16:45:53.030Z,93869.44
2023-01-17T16:48:24.682Z,93865.72
2023-01-17T16:50:56.260Z,93860.63
2023-01-17T16:53:28.490Z,93852.22
2023-01-17T16:56:09.639Z,93854.13
2023-01-17T16:58:41.981Z,93864.59
2023-01-17T17:01:16.490Z,93868.00
2023-01-17T17:03:48.500Z,93870.78
2023-01-17T17:06:20.165Z,93881.47
2023-01-17T17:08:51.723Z,93893.91
2023-01-17T17:11:23.500Z,93887.31
2023-01-17T17:13:55.080Z,93891.06
2023-01-17T17:16:30.150Z,93892.25
2023-01-17T17:19:05.745Z,93897.22
2023-01-17T17:21:37.798Z,93909.09
2023-01-17T17:24:13.880Z,93917.72
2023-01-17T17:26:45.520Z,93922.28
2023-01-17T17:29:17.378Z,93927.66
2023-01-17T17:31:49.007Z,93936.16
2023-01-17T17:34:20.683Z,93940.31
2023-01-17T17:36:52.345Z,93946.19
2023-01-17T17:39:25.052Z,93957.78
2023-01-17T17:41:57.063Z,93957.84
2023-01-17T17:44:28.559Z,93952.28
2023-01-17T17:47:00.234Z,93954.50
2023-01-17T17:49:31.824Z,93963.81
2023-01-17T17:52:07.651Z,93964.09
2023-01-17T17:54:39.206Z,93978.19
2023-01-17T17:57:10.758Z,93973.16
2023-01-17T17:59:42.375Z,93968.56
2023-01-17T18:02:14.038Z,93963.09
2023-01-17T18:04:45.721Z,93967.56
2023-01-17T18:07:17.476Z,93967.50
2023-01-17T18:09:48.997Z,93975.81
2023-01-17T18:12:20.501Z,93976.69
2023-01-17T18:14:52.100Z,93978.09
2023-01-17T18:17:23.785Z,93974.34
2023-01-17T18:19:55.438Z,93967.00
2023-01-17T18:22:27.024Z,93967.50
2023-01-17T18:24:58.643Z,93974.56
2023-01-17T18:27:30.263Z,93978.25
2023-01-17T18:30:01.820Z,93978.75
2023-01-17T18:32:33.561Z,93985.41
2023-01-17T18:35:05.695Z,93992.03
2023-01-17T18:37:37.351Z,93987.06
2023-01-17T18:40:09.815Z,93986.22
2023-01-17T18:42:41.420Z,93978.19
2023-01-17T18:45:13.138Z,93975.28
2023-01-17T18:47:44.777Z,93987.53
2023-01-17T18:50:16.566Z,93975.25
2023-01-17T18:52:48.088Z,93966.28
2023-01-17T18:55:19.915Z,93973.22
2023-01-17T18:57:51.598Z,93970.66
2023-01-17T19:00:23.455Z,93965.16
2023-01-17T19:02:55.123Z,93985.66
2023-01-17T19:05:26.981Z,93977.22
2023-01-17T19:07:58.652Z,93964.22
2023-01-17T19:10:30.359Z,93972.16
2023-01-17T19:13:01.977Z,93959.25
2023-01-17T19:15:33.929Z,93965.09
2023-01-17T19:18:05.726Z,93971.66
2023-01-17T19:20:37.695Z,93971.66
2023-01-17T19:23:09.354Z,93975.16
2023-01-17T19:25:40.918Z,93976.97
2023-01-17T19:28:12.603Z,93982.91
2023-01-17T19:30:44.269Z,93983.56
2023-01-17T19:33:16.201Z,93989.25
2023-01-17T19:35:47.828Z,93987.19
2023-01-17T19:38:19.404Z,93993.09
2023-01-17T19:40:50.985Z,93991.00
2023-01-17T19:43:22.915Z,93997.44
2023-01-17T19:45:59.366Z,94000.50
2023-01-17T19:48:31.317Z,94004.16
2023-01-17T19:51:05.807Z,94009.69
2023-01-17T19:53:38.896Z,94009.69
2023-01-17T19:56:13.557Z,94020.34
2023-01-17T19:58:46.990Z,94020.28
2023-01-17T20:01:25.326Z,94026.97
2023-01-17T20:03:58.939Z,94023.41
2023-01-17T20:06:33.671Z,94024.97
2023-01-17T20:09:06.313Z,94029.94
2023-01-17T20:11:38.630Z,94022.72
2023-01-17T20:14:14.279Z,94031.84
2023-01-17T20:16:45.832Z,94034.34
2023-01-17T20:19:17.437Z,94033.41
2023-01-17T20:21:51.287Z,94030.38
2023-01-17T20:24:22.872Z,94028.94
2023-01-17T20:26:54.699Z,94037.94
2023-01-17T20:29:26.431Z,94027.84
2023-01-17T20:31:58.051Z,94028.81
2023-01-17T20:34:29.601Z,94025.34
2023-01-17T20:37:01.156Z,94025.03
2023-01-17T20:39:32.713Z,94024.00
2023-01-17T20:42:04.568Z,94027.34
2023-01-17T20:44:36.243Z,94023.31
2023-01-17T20:47:08.001Z,94043.00
2023-01-17T20:49:39.669Z,94043.81
2023-01-17T20:52:11.271Z,94040.06
2023-01-17T20:54:42.900Z,94048.91
2023-01-17T20:57:14.591Z,94045.59
2023-01-17T20:59:46.186Z,94055.00
2023-01-17T21:02:18.376Z,94059.44
2023-01-17T21:04:50.184Z,94073.44
2023-01-17T21:07:21.870Z,94075.72
2023-01-17T21:09:53.608Z,94080.28
2023-01-17T21:12:25.311Z,94084.34
2023-01-17T21:14:56.855Z,94091.47
2023-01-17T21:17:28.465Z,94084.97
2023-01-17T21:20:00.115Z,94083.59
2023-01-17T21:22:31.746Z,94092.16
2023-01-17T21:25:03.420Z,94104.13
2023-01-17T21:27:34.995Z,94112.59
2023-01-17T21:30:07.344Z,94118.31
2023-01-17T21:32:38.946Z,94123.59
2023-01-17T21:35:10.590Z,94127.50
2023-01-17T21:37:42.223Z,94133.44
2023-01-17T21:40:13.850Z,94129.84
2023-01-17T21:42:45.467Z,94125.38
2023-01-17T21:45:17.051Z,94128.00
2023-01-17T21:47:48.615Z,94130.59
2023-01-17T21:50:32.647Z,94144.03
2023-01-17T21:53:04.812Z,94148.63
2023-01-17T21:55:37.881Z,94148.31
2023-01-17T21:58:14.271Z,94152.09
2023-01-17T22:00:45.849Z,94145.75
2023-01-17T22:03:17.444Z,94154.09
2023-01-17T22:05:48.979Z,94147.69
2023-01-17T22:08:20.543Z,94150.56
2023-01-17T22:10:52.063Z,94144.69
2023-01-17T22:13:23.683Z,94150.38
2023-01-17T22:16:00.949Z,94138.59
2023-01-17T22:18:37.775Z,94151.34
2023-01-17T22:21:18.239Z,94147.22
2023-01-17T22:23:56.100Z,94147.44
2023-01-17T22:26:30.576Z,94153.44
2023-01-17T22:29:02.818Z,94172.66
2023-01-17T22:31:38.064Z,94175.09
2023-01-17T22:34:09.799Z,94175.97
2023-01-17T22:36:42.214Z,94177.00
2023-01-17T22:39:13.815Z,94173.56
2023-01-17T22:41:45.460Z,94181.56
2023-01-17T22:44:16.983Z,94179.63
2023-01-17T22:46:48.585Z,94181.19
2023-01-17T22:49:20.161Z,94184.66
2023-01-17T22:51:51.753Z,94180.66
2023-01-17T22:54:23.490Z,94184.47
2023-01-17T22:56:55.076Z,94185.75
2023-01-17T22:59:26.591Z,94187.97
2023-01-17T23:01:58.242Z,94189.06
2023-01-17T23:04:29.933Z,94197.91
2023-01-17T23:07:01.524Z,94193.16
2023-01-17T23:09:33.378Z,94191.84
2023-01-17T23:12:05.199Z,94198.34
2023-01-17T23:14:36.916Z,94203.56
2023-01-17T23:17:08.535Z,94202.25
2023-01-17T23:19:42.265Z,94213.38
2023-01-17T23:22:26.507Z,94217.09
2023-01-17T23:25:01.036Z,94219.28
2023-01-17T23:27:34.252Z,94218.47
2023-01-17T23:30:16.703Z,94221.81
2023-01-17T23:32:51.851Z,94225.53
2023-01-17T23:35:27.478Z,94217.63
2023-01-17T23:38:00.216Z,94223.53
2023-01-17T23:40:33.865Z,94225.69
2023-01-17T23:43:05.799Z,94222.28
2023-01-17T23:45:39.051Z,94211.25
2023-01-17T23:48:11.035Z,94219.88
2023-01-17T23:50:45.439Z,94214.38
2023-01-17T23:53:19.920Z,94218.34
2023-01-17T23:55:56.727Z,94218.19
2023-01-17T23:58:28.316Z,94213.13
